METAR Data
IDs: Format: Raw Decoded Include TAF

Data at: 1005 UTC 18 Jan 2022

K7BM 180955Z AUTO 33005KT 10SM CLR 01/M20 A2998 RMK AO2
K7BM 180935Z AUTO 34004KT 10SM SCT120 01/M20 A2999 RMK AO2
K7BM 180915Z AUTO 35004KT 10SM SCT120 01/M20 A2999 RMK AO2
K7BM 180855Z AUTO 28006KT 10SM SCT120 01/M17 A3000 RMK AO2
K7BM 180835Z AUTO 29004KT 10SM CLR 01/M16 A2999 RMK AO2
K7BM 180815Z AUTO 30006KT 10SM CLR 01/M16 A2999 RMK AO2
K7BM 180755Z AUTO 29010KT 250V310 10SM CLR 01/M16 A2999 RMK AO2
K7BM 180735Z AUTO 00000KT 10SM CLR 01/M16 A3000 RMK AO2
K7BM 180715Z AUTO 00000KT 10SM CLR 01/M15 A3001 RMK AO2
K7BM 180655Z AUTO 25003KT 10SM CLR 01/M15 A3002 RMK AO2
K7BM 180635Z AUTO 00000KT 10SM CLR 01/M15 A3002 RMK AO2
K7BM 180615Z AUTO 28004KT 10SM CLR 01/M16 A3003 RMK AO2
K7BM 180555Z AUTO 21006KT 10SM CLR 01/M15 A3003 RMK AO2
K7BM 180535Z AUTO 31003KT 10SM CLR 01/M16 A3003 RMK AO2
K7BM 180515Z AUTO 33004KT 10SM CLR 01/M16 A3003 RMK AO2
K7BM 180455Z AUTO 34004KT 10SM CLR 01/M15 A3003 RMK AO2
K7BM 180435Z AUTO 31007G19KT 10SM CLR 01/M17 A3004 RMK AO2
K7BM 180415Z AUTO 29009G14KT 260V320 10SM CLR 02/M17 A3005 RMK AO2
K7BM 180355Z AUTO 28008G16KT 260V320 10SM CLR 02/M17 A3005 RMK AO2
K7BM 180335Z AUTO 31007KT 270V350 10SM CLR 02/M17 A3006 RMK AO2
K7BM 180315Z AUTO 33006KT 10SM CLR 02/M16 A3006 RMK AO2
K7BM 180255Z AUTO 33004KT 10SM CLR 02/M16 A3006 RMK AO2
K7BM 180235Z AUTO 33004KT 10SM CLR 02/M15 A3007 RMK AO2
K7BM 180215Z AUTO 31004KT 10SM CLR 02/M15 A3006 RMK AO2
K7BM 180155Z AUTO 29008G18KT 250V330 10SM CLR 03/M15 A3006 RMK AO2
K7BM 180135Z AUTO 30009G18KT 260V340 10SM CLR 03/M15 A3006 RMK AO2
K7BM 180115Z AUTO 29009G18KT 260V320 10SM CLR 03/M14 A3006 RMK AO2
K7BM 180055Z AUTO 29010G19KT 10SM CLR 03/M14 A3006 RMK AO2
K7BM 180035Z AUTO 29007KT 10SM CLR 03/M13 A3006 RMK AO2
K7BM 180015Z AUTO 31005G18KT 10SM CLR 03/M13 A3006 RMK AO2
K7BM 172355Z AUTO 31006G17KT 270V340 10SM CLR 04/M13 A3005 RMK AO2
K7BM 172335Z AUTO 28008G20KT 10SM CLR 05/M13 A3006 RMK AO2
K7BM 172315Z AUTO 28008G17KT 10SM CLR 05/M13 A3006 RMK AO2
K7BM 172255Z AUTO 26008G19KT 250V310 10SM CLR 06/M13 A3006 RMK AO2
K7BM 172235Z AUTO 29013G21KT 10SM CLR 06/M13 A3006 RMK AO2
K7BM 172215Z AUTO 25013G22KT 10SM CLR 06/M13 A3006 RMK AO2
K7BM 172155Z AUTO 30011G19KT 250V310 10SM CLR 06/M13 A3005 RMK AO2
K7BM 172135Z AUTO 30005G20KT 10SM CLR 07/M12 A3005 RMK AO2
K7BM 172115Z AUTO 27011G22KT 230V290 10SM CLR 06/M13 A3006 RMK AO2
K7BM 172055Z AUTO 26012G19KT 230V300 10SM CLR 06/M13 A3006 RMK AO2
K7BM 172035Z AUTO 33004KT 10SM CLR 06/M12 A3007 RMK AO2
K7BM 172015Z AUTO 35006G16KT 10SM CLR 05/M12 A3006 RMK AO2
K7BM 171955Z AUTO 31004KT 10SM CLR 05/M13 A3010 RMK AO2
K7BM 171935Z AUTO 34004KT 10SM CLR 06/M12 A3010 RMK AO2
K7BM 171915Z AUTO 34004KT 10SM CLR 05/M13 A3010 RMK AO2
K7BM 171855Z AUTO 00000KT 10SM CLR 04/M13 A3012 RMK AO2
K7BM 171835Z AUTO 30005KT 10SM CLR 04/M13 A3012 RMK AO2
K7BM 171815Z AUTO 28005KT 10SM CLR 03/M13 A3015 RMK AO2
K7BM 171755Z AUTO 00000KT 10SM CLR 03/M13 A3015 RMK AO2
K7BM 171735Z AUTO 00000KT 10SM CLR 03/M13 A3016 RMK AO2
K7BM 171715Z AUTO 09003KT 10SM CLR 03/M14 A3016 RMK AO2
K7BM 171655Z AUTO 00000KT 10SM CLR 02/M13 A3016 RMK AO2
K7BM 171635Z AUTO 11003KT 10SM CLR 02/M13 A3016 RMK AO2
K7BM 171615Z AUTO 31003KT 10SM CLR 03/M14 A3015 RMK AO2
K7BM 171555Z AUTO 00000KT 10SM CLR 02/M13 A3015 RMK AO2
K7BM 171535Z AUTO 23004KT 10SM CLR 02/M14 A3015 RMK AO2
K7BM 171515Z AUTO 25006KT 210V270 10SM CLR 01/M14 A3014 RMK AO2
K7BM 171454Z AUTO 26006KT 10SM CLR 01/M14 A3014 RMK AO2
K7BM 171435Z AUTO 24005KT 10SM CLR 01/M13 A3013 RMK AO2
K7BM 171415Z AUTO 30004KT 10SM CLR 01/M13 A3013 RMK AO2
K7BM 171355Z AUTO 33005KT 10SM CLR 01/M13 A3013 RMK AO2
K7BM 171335Z AUTO 29005KT 10SM CLR 01/M13 A3013 RMK AO2
K7BM 171315Z AUTO 29006KT 260V340 10SM CLR 01/M13 A3013 RMK AO2
K7BM 171255Z AUTO 32008G15KT 280V350 10SM CLR 02/M13 A3012 RMK AO2
K7BM 171235Z AUTO 32004KT 10SM CLR 01/M13 A3013 RMK AO2
K7BM 171215Z AUTO 33006KT 10SM CLR 01/M13 A3013 RMK AO2
K7BM 171155Z AUTO 31007KT 10SM CLR 01/M13 A3013 RMK AO2
K7BM 171135Z AUTO 30006G18KT 10SM CLR 01/M13 A3014 RMK AO2
K7BM 171115Z AUTO 28004G16KT 10SM CLR 02/M12 A3014 RMK AO2
K7BM 171055Z AUTO 32003G19KT 10SM CLR 02/M13 A3014 RMK AO2
K7BM 171035Z AUTO 31003KT 10SM CLR 01/M14 A3014 RMK AO2
K7BM 171015Z AUTO 31006G16KT 10SM CLR 01/M15 A3014 RMK AO2
K7BM 170955Z AUTO 33006G17KT 300V010 10SM CLR 02/M14 A3014 RMK AO2
K7BM 170935Z AUTO 29005KT 10SM CLR 01/M14 A3015 RMK AO2
K7BM 170915Z AUTO 00000KT 10SM CLR 01/M14 A3015 RMK AO2
K7BM 170855Z AUTO 34005KT 10SM CLR 01/M15 A3016 RMK AO2
K7BM 170835Z AUTO 34007G14KT 10SM CLR 01/M15 A3016 RMK AO2
K7BM 170815Z AUTO 31005KT 10SM CLR 01/M15 A3016 RMK AO2
K7BM 170755Z AUTO 25007KT 10SM CLR 01/M17 A3017 RMK AO2
K7BM 170735Z AUTO 25005KT 10SM CLR 01/M17 A3018 RMK AO2
K7BM 170715Z AUTO 26009G14KT 200V300 10SM CLR 00/M18 A3018 RMK AO2
K7BM 170655Z AUTO 29005KT 10SM CLR 01/M18 A3019 RMK AO2
K7BM 170635Z AUTO 28006KT 10SM CLR 01/M20 A3020 RMK AO2
K7BM 170615Z AUTO 26007G15KT 10SM CLR 00/M20 A3020 RMK AO2
K7BM 170555Z AUTO 26009G18KT 10SM CLR 00/M20 A3021 RMK AO2
K7BM 170535Z AUTO 26011G18KT 10SM CLR 00/M20 A3021 RMK AO2
K7BM 170515Z AUTO 26011G17KT 230V290 10SM CLR 00/M20 A3021 RMK AO2
K7BM 170455Z AUTO 27011G17KT 250V320 10SM CLR 00/M20 A3021 RMK AO2
K7BM 170435Z AUTO 29006G14KT 10SM CLR 01/M18 A3022 RMK AO2
K7BM 170415Z AUTO 29010G16KT 10SM CLR 01/M19 A3022 RMK AO2
K7BM 170355Z AUTO 28010G16KT 10SM CLR 01/M19 A3021 RMK AO2
K7BM 170335Z AUTO 29008G18KT 10SM CLR 01/M20 A3021 RMK AO2
K7BM 170315Z AUTO 28008G14KT 260V320 10SM CLR 00/M21 A3021 RMK AO2
K7BM 170255Z AUTO 29009KT 10SM CLR 01/M21 A3021 RMK AO2
K7BM 170235Z AUTO 26014G18KT 10SM CLR 01/M21 A3021 RMK AO2
K7BM 170215Z AUTO 28012G18KT 10SM CLR 02/M22 A3022 RMK AO2
K7BM 170155Z AUTO 29009KT 10SM CLR 01/M22 A3023 RMK AO2
K7BM 170135Z AUTO 26013G19KT 10SM CLR 02/M23 A3022 RMK AO2
K7BM 170115Z AUTO 26012G19KT 10SM CLR 02/M23 A3022 RMK AO2
K7BM 170055Z AUTO 27010KT 10SM CLR 02/M23 A3022 RMK AO2
K7BM 170035Z AUTO 29008G16KT 10SM CLR 02/M23 A3020 RMK AO2
K7BM 170015Z AUTO 26013G18KT 230V290 10SM CLR 03/M23 A3020 RMK AO2
K7BM 162355Z AUTO 29009G19KT 10SM CLR 03/M23 A3019 RMK AO2
K7BM 162335Z AUTO 33005G17KT 10SM CLR 04/M23 A3017 RMK AO2
K7BM 162315Z AUTO 28006G17KT 10SM CLR 05/M23 A3019 RMK AO2
K7BM 162255Z AUTO 25007G14KT 10SM CLR 06/M22 A3020 RMK AO2
K7BM 162235Z AUTO 21005G15KT 10SM CLR 06/M22 A3020 RMK AO2
K7BM 162215Z AUTO 24007G15KT 10SM CLR 06/M23 A3019 RMK AO2